Time;durP1;ratioP1;P1;durP2;ratioP2;P2;SDS_P1;SDS_P2;PMS_P1;PMS_P2;Temp;Humidity;BMP_temperature;BMP_pressure;BME280_temperature;BME280_humidity;BME280_pressure;Samples;Min_cycle;Max_cycle;Signal;HPM_P1;HPM_P2
2023/07/01 00:01:41;;;;;;;4.22;0.80;;;13.00;99.90;;;;;;4991357;28;20203;-71
2023/07/01 00:04:12;;;;;;;2.80;0.68;;;13.10;99.90;;;;;;4991756;28;20219;-71
2023/07/01 00:06:47;;;;;;;2.80;0.63;;;13.20;99.90;;;;;;4991749;28;20203;-72
2023/07/01 00:09:18;;;;;;;5.85;0.80;;;13.30;99.90;;;;;;4990124;28;20195;-72
2023/07/01 00:11:49;;;;;;;1.10;0.50;;;13.40;99.90;;;;;;4974114;28;20195;-71
2023/07/01 00:14:20;;;;;;;2.25;0.60;;;13.50;99.90;;;;;;4981857;28;20548;-71
2023/07/01 00:16:51;;;;;;;1.30;0.47;;;13.60;99.90;;;;;;4986355;28;20196;-71
2023/07/01 00:19:24;;;;;;;0.80;0.50;;;13.70;99.90;;;;;;4993608;28;20188;-71
2023/07/01 00:21:57;;;;;;;1.77;0.50;;;13.80;99.90;;;;;;4988024;28;20203;-71
2023/07/01 00:24:28;;;;;;;1.48;0.60;;;13.90;99.90;;;;;;4991593;28;20237;-71
2023/07/01 00:26:59;;;;;;;1.65;0.50;;;14.00;99.90;;;;;;4989775;28;20210;-71
2023/07/01 00:29:30;;;;;;;2.13;0.40;;;14.20;99.90;;;;;;4989781;28;20210;-72
2023/07/01 00:32:01;;;;;;;3.03;0.60;;;14.20;99.90;;;;;;4994867;28;20210;-71
2023/07/01 00:34:32;;;;;;;0.77;0.50;;;14.30;99.90;;;;;;4996907;28;20196;-72
2023/07/01 00:37:06;;;;;;;0.40;0.40;;;14.40;99.90;;;;;;4996252;28;20196;-71
2023/07/01 00:39:37;;;;;;;1.15;0.40;;;14.50;99.90;;;;;;4989437;28;20196;-72
2023/07/01 00:42:08;;;;;;;2.13;0.50;;;14.60;99.90;;;;;;4995155;28;20212;-72
2023/07/01 00:44:40;;;;;;;0.35;0.35;;;14.60;99.90;;;;;;4996330;28;20223;-71
2023/07/01 00:47:13;;;;;;;0.30;0.30;;;14.50;99.90;;;;;;4993155;28;20204;-72
2023/07/01 00:49:44;;;;;;;0.60;0.40;;;14.60;99.90;;;;;;4993368;28;20195;-72
2023/07/01 00:52:18;;;;;;;2.05;0.50;;;14.60;99.90;;;;;;4989617;28;20196;-72
2023/07/01 00:54:49;;;;;;;2.20;0.40;;;14.80;99.90;;;;;;4977121;28;20199;-74
2023/07/01 00:57:20;;;;;;;0.65;0.65;;;14.90;99.90;;;;;;4977016;28;20203;-71
2023/07/01 00:59:51;;;;;;;1.58;0.70;;;15.10;99.90;;;;;;4990072;28;20314;-73
2023/07/01 01:02:28;;;;;;;0.50;0.40;;;15.20;99.90;;;;;;4994688;28;20208;-72
2023/07/01 01:05:10;;;;;;;0.60;0.40;;;15.30;99.90;;;;;;4996131;28;20562;-73
2023/07/01 01:07:48;;;;;;;0.40;0.40;;;15.40;99.90;;;;;;4992455;28;20562;-72
2023/07/01 01:10:24;;;;;;;0.30;0.30;;;15.50;99.90;;;;;;4994590;28;20191;-72
2023/07/01 01:12:58;;;;;;;0.63;0.50;;;15.50;99.90;;;;;;4994759;28;20203;-72
2023/07/01 01:15:29;;;;;;;0.90;0.80;;;15.60;99.90;;;;;;4994396;28;20192;-73
2023/07/01 01:18:04;;;;;;;0.63;0.57;;;15.60;99.90;;;;;;4985075;28;20635;-73
2023/07/01 01:20:39;;;;;;;1.33;0.70;;;15.70;99.90;;;;;;4995770;28;20208;-74
2023/07/01 01:23:16;;;;;;;0.63;0.50;;;15.70;99.90;;;;;;4995898;28;20667;-74
2023/07/01 01:25:54;;;;;;;1.27;0.70;;;15.80;99.90;;;;;;4993487;28;20223;-73
2023/07/01 01:28:28;;;;;;;0.90;0.60;;;15.90;99.90;;;;;;4994738;28;20252;-74
2023/07/01 01:30:59;;;;;;;1.08;0.52;;;15.90;99.90;;;;;;4995402;28;20207;-74
2023/07/01 01:33:30;;;;;;;1.42;0.68;;;16.00;99.90;;;;;;4995919;28;20196;-74
2023/07/01 01:36:09;;;;;;;0.88;0.50;;;15.90;99.90;;;;;;4993444;28;20659;-74
2023/07/01 01:38:42;;;;;;;0.80;0.50;;;15.80;99.90;;;;;;4994869;28;20211;-73
2023/07/01 01:41:20;;;;;;;0.50;0.50;;;15.90;99.90;;;;;;4994966;28;20842;-74
2023/07/01 01:43:58;;;;;;;0.63;0.50;;;15.90;99.90;;;;;;4995844;28;20191;-74
2023/07/01 01:46:30;;;;;;;1.13;0.70;;;16.00;99.90;;;;;;4994871;28;20602;-73
2023/07/01 01:49:06;;;;;;;1.10;0.70;;;16.20;99.90;;;;;;4995198;28;20192;-74
2023/07/01 01:51:39;;;;;;;0.75;0.55;;;16.30;99.90;;;;;;4993589;28;20287;-73
2023/07/01 01:54:13;;;;;;;1.55;0.57;;;16.40;99.90;;;;;;4995463;28;20702;-74
2023/07/01 01:56:44;;;;;;;0.85;0.68;;;16.30;99.90;;;;;;4992575;28;20559;-75
2023/07/01 01:59:20;;;;;;;0.68;0.50;;;16.40;99.90;;;;;;4990603;28;20223;-75
2023/07/01 02:01:51;;;;;;;0.40;0.40;;;16.40;99.90;;;;;;4993111;28;20195;-75
2023/07/01 02:04:23;;;;;;;0.75;0.60;;;16.50;99.90;;;;;;4994929;28;20217;-74
2023/07/01 02:06:54;;;;;;;1.73;0.80;;;16.60;99.90;;;;;;4993212;28;20254;-73
2023/07/01 02:09:25;;;;;;;1.27;0.60;;;16.70;99.90;;;;;;4995095;28;20187;-73
2023/07/01 02:11:56;;;;;;;1.20;0.65;;;16.80;99.90;;;;;;4994278;28;20206;-73
2023/07/01 02:14:32;;;;;;;1.20;0.60;;;16.80;99.90;;;;;;4989349;28;20200;-74
2023/07/01 02:17:03;;;;;;;0.95;0.70;;;16.80;99.90;;;;;;4985847;28;20271;-72
2023/07/01 02:19:33;;;;;;;0.70;0.68;;;16.80;99.90;;;;;;4992427;28;20544;-73
2023/07/01 02:22:04;;;;;;;0.60;0.57;;;16.80;99.90;;;;;;4990729;28;20199;-72
2023/07/01 02:24:35;;;;;;;1.70;0.80;;;17.00;99.90;;;;;;4993088;28;20203;-72
2023/07/01 02:27:06;;;;;;;2.15;0.90;;;17.10;99.90;;;;;;4987129;28;20196;-73
2023/07/01 02:29:39;;;;;;;1.80;0.70;;;17.30;99.90;;;;;;4994004;28;20233;-73
2023/07/01 02:32:11;;;;;;;0.82;0.60;;;17.40;99.90;;;;;;4989117;28;20203;-74
2023/07/01 02:34:42;;;;;;;1.10;0.60;;;17.40;99.90;;;;;;4990764;28;20192;-74
2023/07/01 02:37:13;;;;;;;0.80;0.60;;;17.50;99.90;;;;;;4993578;28;20210;-74
2023/07/01 02:39:45;;;;;;;1.98;0.80;;;17.60;99.90;;;;;;4992651;28;20239;-74
2023/07/01 02:42:19;;;;;;;1.40;0.90;;;17.60;99.90;;;;;;4992346;28;20196;-73
2023/07/01 02:44:52;;;;;;;0.65;0.40;;;17.50;99.90;;;;;;4991488;28;20247;-74
2023/07/01 02:47:24;;;;;;;0.30;0.30;;;17.70;99.90;;;;;;4984363;28;20195;-73
2023/07/01 02:49:55;;;;;;;0.28;0.20;;;17.90;99.90;;;;;;4991740;28;20204;-73
2023/07/01 02:52:26;;;;;;;0.10;0.10;;;18.10;99.90;;;;;;4986859;28;20287;-73
2023/07/01 02:54:57;;;;;;;0.22;0.20;;;18.20;99.90;;;;;;4989484;28;20219;-74
2023/07/01 02:57:28;;;;;;;0.15;0.15;;;18.30;99.90;;;;;;4988217;28;20200;-73
2023/07/01 03:00:02;;;;;;;1.13;0.20;;;18.40;99.90;;;;;;4990602;28;20253;-73
2023/07/01 03:02:33;;;;;;;0.50;0.30;;;18.50;99.90;;;;;;4989821;28;20199;-73
2023/07/01 03:05:06;;;;;;;0.20;0.20;;;18.50;99.90;;;;;;4991279;28;20231;-74
2023/07/01 03:07:37;;;;;;;0.30;0.30;;;18.40;99.90;;;;;;4993726;28;20203;-74
2023/07/01 03:10:09;;;;;;;0.88;0.40;;;18.30;99.90;;;;;;4984700;28;20204;-74
2023/07/01 03:12:40;;;;;;;0.90;0.17;;;18.30;99.90;;;;;;4991915;28;20236;-73
2023/07/01 03:15:14;;;;;;;0.30;0.20;;;18.40;99.90;;;;;;4993126;28;20211;-73
2023/07/01 03:17:47;;;;;;;0.20;0.20;;;18.30;99.90;;;;;;4988133;28;20200;-73
2023/07/01 03:20:22;;;;;;;0.57;0.30;;;18.30;99.90;;;;;;4989850;28;20203;-73
2023/07/01 03:22:54;;;;;;;0.40;0.30;;;18.20;99.90;;;;;;4974588;28;20203;-73
2023/07/01 03:25:25;;;;;;;0.20;0.20;;;18.20;99.90;;;;;;4978304;28;20212;-74
2023/07/01 03:27:56;;;;;;;0.20;0.20;;;18.30;99.90;;;;;;4978473;28;20192;-74
2023/07/01 03:30:35;;;;;;;0.20;0.20;;;18.30;99.90;;;;;;4989239;28;20274;-74
2023/07/01 03:33:07;;;;;;;0.68;0.28;;;18.20;99.90;;;;;;4986987;28;20196;-73
2023/07/01 03:35:38;;;;;;;0.10;0.10;;;18.20;99.90;;;;;;4988300;28;20199;-73
2023/07/01 03:38:09;;;;;;;0.20;0.20;;;18.20;99.90;;;;;;4988358;28;20200;-73
2023/07/01 03:40:40;;;;;;;0.20;0.20;;;18.30;99.90;;;;;;4993137;28;20251;-74
2023/07/01 03:43:11;;;;;;;0.20;0.20;;;18.40;99.90;;;;;;4993484;28;20669;-74
2023/07/01 03:45:44;;;;;;;0.70;0.20;;;18.50;99.90;;;;;;4993248;28;20215;-74
2023/07/01 03:48:15;;;;;;;0.20;0.20;;;18.50;99.90;;;;;;4992358;28;20203;-74
2023/07/01 03:50:46;;;;;;;1.50;0.30;;;18.50;99.90;;;;;;4991274;28;20203;-74
2023/07/01 03:53:18;;;;;;;0.40;0.40;;;18.50;99.90;;;;;;4992108;28;20192;-73
2023/07/01 03:55:49;;;;;;;0.30;0.30;;;18.50;99.90;;;;;;4993082;28;20568;-74
2023/07/01 03:58:24;;;;;;;1.70;0.60;;;18.50;99.90;;;;;;4983918;28;20195;-74
2023/07/01 04:00:57;;;;;;;1.75;0.50;;;18.50;99.90;;;;;;4991831;28;20652;-74
2023/07/01 04:03:28;;;;;;;1.60;0.30;;;18.50;99.90;;;;;;4993733;28;20210;-74
2023/07/01 04:05:59;;;;;;;0.10;0.10;;;18.60;99.90;;;;;;4985080;28;20217;-74
2023/07/01 04:08:30;;;;;;;0.20;0.20;;;18.50;99.90;;;;;;4996392;28;20561;-73
2023/07/01 04:11:01;;;;;;;0.52;0.20;;;18.40;99.90;;;;;;4996205;28;20207;-74
2023/07/01 04:13:32;;;;;;;3.25;1.00;;;18.40;99.90;;;;;;4992603;28;20219;-74
2023/07/01 04:16:06;;;;;;;0.20;0.20;;;18.40;99.90;;;;;;4992583;28;20281;-74
2023/07/01 04:18:37;;;;;;;1.10;0.20;;;18.40;99.90;;;;;;4998466;28;20674;-74
2023/07/01 04:21:08;;;;;;;0.20;0.20;;;18.30;99.90;;;;;;4995899;28;20200;-75
2023/07/01 04:23:39;;;;;;;0.10;0.10;;;18.40;99.90;;;;;;4996938;28;20278;-74
2023/07/01 04:26:11;;;;;;;0.40;0.30;;;18.40;99.90;;;;;;4996602;28;20220;-75
2023/07/01 04:28:42;;;;;;;0.20;0.20;;;18.40;99.90;;;;;;4996584;28;20199;-74
2023/07/01 04:31:15;;;;;;;0.70;0.20;;;18.30;99.90;;;;;;4995498;28;20203;-75
2023/07/01 04:33:46;;;;;;;0.50;0.30;;;18.30;99.90;;;;;;4995922;28;20204;-71
2023/07/01 04:36:17;;;;;;;0.30;0.20;;;18.30;99.90;;;;;;4995465;28;20652;-73
2023/07/01 04:38:48;;;;;;;0.38;0.28;;;18.30;99.90;;;;;;4996651;28;20200;-72
2023/07/01 04:41:19;;;;;;;0.20;0.20;;;18.20;99.90;;;;;;4993589;28;20541;-74
2023/07/01 04:43:50;;;;;;;2.20;0.20;;;18.10;99.90;;;;;;4993777;28;20199;-76
2023/07/01 04:46:24;;;;;;;0.20;0.10;;;18.20;99.90;;;;;;4991720;28;20228;-74
2023/07/01 04:48:55;;;;;;;0.30;0.30;;;18.20;99.90;;;;;;4992050;28;20266;-77
2023/07/01 04:51:26;;;;;;;0.20;0.20;;;18.30;99.90;;;;;;4993151;28;20200;-75
2023/07/01 04:53:57;;;;;;;0.10;0.10;;;18.30;99.90;;;;;;4991614;28;20203;-74
2023/07/01 04:56:28;;;;;;;0.50;0.40;;;18.30;99.90;;;;;;4994348;28;20204;-74
2023/07/01 04:58:59;;;;;;;0.10;0.10;;;18.30;99.90;;;;;;4990988;28;20235;-75
2023/07/01 05:01:32;;;;;;;0.20;0.20;;;18.30;99.90;;;;;;4988954;28;20257;-75
2023/07/01 05:04:03;;;;;;;1.08;0.20;;;18.10;99.90;;;;;;4990439;28;20202;-76
2023/07/01 05:06:35;;;;;;;0.20;0.20;;;18.10;99.90;;;;;;4993748;28;20241;-73
2023/07/01 05:09:06;;;;;;;0.20;0.20;;;18.20;99.90;;;;;;4993931;28;20203;-74
2023/07/01 05:11:37;;;;;;;0.50;0.20;;;18.20;99.90;;;;;;4995548;28;20196;-73
2023/07/01 05:14:09;;;;;;;0.20;0.20;;;18.20;99.90;;;;;;4995725;28;20211;-74
2023/07/01 05:16:42;;;;;;;0.17;0.17;;;18.10;99.90;;;;;;4994977;28;20200;-73
2023/07/01 05:19:13;;;;;;;0.28;0.28;;;18.10;99.90;;;;;;4995528;28;20648;-74
2023/07/01 05:21:52;;;;;;;0.93;0.30;;;18.10;99.90;;;;;;4995836;28;20607;-73
2023/07/01 05:24:24;;;;;;;0.82;0.45;;;18.20;99.90;;;;;;4995803;28;20207;-73
2023/07/01 05:26:55;;;;;;;0.40;0.30;;;18.20;99.90;;;;;;4995317;28;20233;-73
2023/07/01 05:29:28;;;;;;;1.35;0.32;;;18.10;99.90;;;;;;4995334;28;20215;-74
2023/07/01 05:32:02;;;;;;;0.93;0.50;;;18.10;99.90;;;;;;4995707;28;20206;-74
2023/07/01 05:34:34;;;;;;;0.20;0.20;;;18.20;99.90;;;;;;4995421;28;20283;-73
2023/07/01 05:37:05;;;;;;;0.65;0.50;;;18.20;99.90;;;;;;4995377;28;20204;-73
2023/07/01 05:39:36;;;;;;;0.40;0.25;;;18.20;99.90;;;;;;4995398;28;20199;-73
2023/07/01 05:42:08;;;;;;;0.32;0.30;;;18.10;99.90;;;;;;4995450;28;20651;-73
2023/07/01 05:44:39;;;;;;;0.55;0.40;;;18.00;99.90;;;;;;4995655;28;20204;-73
2023/07/01 05:47:12;;;;;;;0.50;0.40;;;17.90;99.90;;;;;;4995165;28;20215;-72
2023/07/01 05:49:43;;;;;;;0.45;0.40;;;17.90;99.90;;;;;;4994989;28;20596;-72
2023/07/01 05:52:14;;;;;;;0.28;0.28;;;17.90;99.90;;;;;;4995249;28;20208;-72
2023/07/01 05:54:45;;;;;;;0.40;0.40;;;17.80;99.90;;;;;;4994985;28;20572;-73
2023/07/01 05:57:18;;;;;;;0.32;0.30;;;17.80;99.90;;;;;;4994834;28;20214;-73
2023/07/01 05:59:49;;;;;;;0.30;0.30;;;17.70;99.90;;;;;;4994476;28;20246;-73
2023/07/01 06:02:22;;;;;;;0.40;0.40;;;17.70;99.90;;;;;;4994927;28;20199;-74
2023/07/01 06:04:53;;;;;;;0.65;0.30;;;17.70;99.90;;;;;;4994602;28;20203;-72
2023/07/01 06:07:24;;;;;;;0.40;0.30;;;17.60;99.90;;;;;;4994622;28;20223;-73
2023/07/01 06:09:56;;;;;;;3.35;0.40;;;17.60;99.90;;;;;;4994455;28;20200;-73
2023/07/01 06:12:27;;;;;;;0.57;0.40;;;17.60;99.90;;;;;;4994813;28;20196;-73
2023/07/01 06:14:58;;;;;;;1.00;0.80;;;17.60;99.90;;;;;;4994699;28;20203;-74
2023/07/01 06:17:31;;;;;;;0.50;0.30;;;17.50;99.90;;;;;;4992914;28;20207;-74
2023/07/01 06:20:03;;;;;;;0.30;0.30;;;17.40;99.90;;;;;;4994657;28;20200;-74
2023/07/01 06:22:34;;;;;;;0.45;0.40;;;17.40;99.90;;;;;;4993468;28;20341;-73
2023/07/01 06:25:05;;;;;;;0.40;0.40;;;17.30;99.90;;;;;;4993329;28;20203;-74
2023/07/01 06:27:36;;;;;;;0.40;0.40;;;17.20;99.90;;;;;;4992754;28;20222;-74
2023/07/01 06:30:08;;;;;;;2.33;0.60;;;17.10;99.90;;;;;;4994512;28;20210;-74
2023/07/01 06:32:41;;;;;;;0.40;0.40;;;17.10;99.90;;;;;;4982070;28;20278;-73
2023/07/01 06:35:12;;;;;;;0.50;0.50;;;17.00;99.90;;;;;;4994346;28;20207;-74
2023/07/01 06:37:43;;;;;;;0.60;0.60;;;16.90;99.90;;;;;;4987042;28;20206;-73
2023/07/01 06:40:14;;;;;;;1.08;0.90;;;16.90;99.90;;;;;;4993049;28;20219;-73
2023/07/01 06:42:46;;;;;;;1.13;0.90;;;16.80;99.90;;;;;;4994181;28;20208;-74
2023/07/01 06:45:17;;;;;;;1.55;0.80;;;16.70;99.90;;;;;;4994121;28;20199;-74
2023/07/01 06:47:50;;;;;;;1.17;0.90;;;16.70;99.90;;;;;;4994217;28;21029;-73
2023/07/01 06:50:21;;;;;;;0.85;0.70;;;16.60;99.90;;;;;;4994424;28;20672;-73
2023/07/01 06:52:52;;;;;;;2.70;0.90;;;16.60;99.90;;;;;;4994278;28;20202;-73
2023/07/01 06:55:23;;;;;;;1.45;0.90;;;16.50;99.90;;;;;;4993912;28;20195;-73
2023/07/01 06:57:55;;;;;;;1.25;1.15;;;16.40;99.90;;;;;;4994054;28;20605;-73
2023/07/01 07:00:26;;;;;;;3.60;0.90;;;16.30;99.90;;;;;;4993663;28;20241;-74
2023/07/01 07:03:00;;;;;;;1.10;0.93;;;16.30;99.90;;;;;;4993928;28;20610;-73
2023/07/01 07:05:32;;;;;;;1.85;1.25;;;16.20;99.90;;;;;;4993152;28;20203;-74
2023/07/01 07:08:04;;;;;;;1.70;1.10;;;16.10;99.90;;;;;;4985354;28;20260;-73
2023/07/01 07:10:35;;;;;;;1.50;1.10;;;16.10;99.90;;;;;;4985949;28;20200;-74
2023/07/01 07:13:06;;;;;;;1.20;0.95;;;16.00;99.90;;;;;;4988561;28;20566;-74
2023/07/01 07:15:38;;;;;;;1.48;1.10;;;16.00;99.90;;;;;;4977564;28;20282;-74
2023/07/01 07:18:11;;;;;;;1.02;0.93;;;15.90;99.90;;;;;;4988470;28;20199;-74
2023/07/01 07:20:43;;;;;;;1.40;1.10;;;15.90;99.90;;;;;;4989774;28;20219;-73
2023/07/01 07:23:14;;;;;;;1.38;1.02;;;15.90;99.90;;;;;;4990746;28;20664;-73
2023/07/01 07:25:45;;;;;;;1.55;1.02;;;15.90;99.90;;;;;;4988198;28;20627;-72
2023/07/01 07:28:16;;;;;;;1.52;1.00;;;15.80;99.90;;;;;;4990421;28;20289;-74
2023/07/01 07:30:47;;;;;;;1.15;1.05;;;15.80;99.90;;;;;;4992238;28;20651;-73
2023/07/01 07:33:20;;;;;;;1.30;1.02;;;15.70;99.90;;;;;;4990307;28;20214;-74
2023/07/01 07:35:52;;;;;;;1.17;1.08;;;15.70;99.90;;;;;;4990483;28;20196;-73
2023/07/01 07:38:23;;;;;;;2.00;1.10;;;15.70;99.90;;;;;;4993451;28;20675;-73
2023/07/01 07:40:54;;;;;;;1.42;1.10;;;15.60;99.90;;;;;;4985802;28;20199;-74
2023/07/01 07:43:25;;;;;;;1.95;1.27;;;15.60;99.90;;;;;;4992636;28;20198;-73
2023/07/01 07:45:56;;;;;;;3.17;1.15;;;15.50;99.90;;;;;;4985446;28;20204;-73
2023/07/01 07:48:29;;;;;;;2.20;1.15;;;15.50;99.90;;;;;;4995117;28;20219;-73
2023/07/01 07:51:00;;;;;;;1.50;1.00;;;15.40;99.90;;;;;;4996505;28;20210;-73
2023/07/01 07:53:31;;;;;;;1.42;1.13;;;15.30;99.90;;;;;;4993303;28;20202;-73
2023/07/01 07:56:02;;;;;;;1.52;1.20;;;15.30;99.90;;;;;;4997123;28;20199;-73
2023/07/01 07:58:33;;;;;;;1.63;1.30;;;15.30;99.90;;;;;;4995143;28;20699;-74
2023/07/01 08:01:05;;;;;;;1.73;1.30;;;15.20;99.90;;;;;;4997135;28;20235;-73
2023/07/01 08:03:38;;;;;;;2.30;1.80;;;15.10;99.90;;;;;;4992439;28;20200;-73
2023/07/01 08:06:10;;;;;;;4.30;1.77;;;15.10;99.90;;;;;;4990283;28;20199;-73
2023/07/01 08:08:41;;;;;;;4.47;2.00;;;15.10;99.90;;;;;;4996262;28;20204;-74
2023/07/01 08:11:15;;;;;;;3.38;2.20;;;15.00;99.90;;;;;;4993113;28;20200;-73
2023/07/01 08:13:46;;;;;;;3.63;2.42;;;15.00;99.90;;;;;;4988184;28;20679;-73
2023/07/01 08:16:17;;;;;;;3.78;2.45;;;14.90;99.90;;;;;;4985198;28;20199;-73
2023/07/01 08:18:50;;;;;;;3.47;2.35;;;14.90;99.90;;;;;;4993810;28;20214;-74
2023/07/01 08:21:21;;;;;;;4.00;2.35;;;14.80;99.90;;;;;;4996931;28;20211;-74
2023/07/01 08:23:52;;;;;;;4.72;2.40;;;14.80;99.90;;;;;;4993905;28;20200;-73
2023/07/01 08:26:23;;;;;;;4.97;2.17;;;14.80;99.90;;;;;;4992667;28;20196;-73
2023/07/01 08:28:54;;;;;;;3.17;2.13;;;14.70;99.90;;;;;;4993055;28;20655;-72
2023/07/01 08:31:26;;;;;;;5.25;2.08;;;14.60;99.90;;;;;;4995843;28;20789;-73
2023/07/01 08:33:59;;;;;;;3.15;2.30;;;14.60;99.90;;;;;;4994228;28;20208;-73
2023/07/01 08:36:30;;;;;;;4.05;2.22;;;14.50;99.90;;;;;;4992908;28;20655;-74
2023/07/01 08:39:04;;;;;;;4.30;2.35;;;14.50;99.90;;;;;;4992598;28;20209;-73
2023/07/01 08:41:36;;;;;;;2.75;2.10;;;14.40;99.90;;;;;;4991044;28;20223;-74
2023/07/01 08:44:08;;;;;;;2.95;2.20;;;14.30;99.90;;;;;;4987153;28;20203;-74
2023/07/01 08:46:40;;;;;;;2.65;1.80;;;14.20;99.90;;;;;;4990882;28;20231;-73
2023/07/01 08:49:16;;;;;;;3.08;1.85;;;14.20;99.90;;;;;;4988413;28;20196;-73
2023/07/01 08:51:48;;;;;;;2.20;1.50;;;14.20;99.90;;;;;;4987303;28;20210;-72
2023/07/01 08:54:19;;;;;;;2.85;1.70;;;14.20;99.90;;;;;;4995568;28;20605;-72
2023/07/01 08:56:52;;;;;;;1.60;1.38;;;14.20;99.90;;;;;;4993966;28;20207;-73
2023/07/01 08:59:23;;;;;;;1.58;1.30;;;14.20;99.90;;;;;;4992332;28;20239;-73
2023/07/01 09:01:54;;;;;;;2.10;1.33;;;14.10;99.90;;;;;;4995079;28;20203;-73
2023/07/01 09:04:27;;;;;;;1.90;1.50;;;14.20;99.90;;;;;;4994120;28;20196;-73
2023/07/01 09:06:58;;;;;;;1.83;1.50;;;14.10;99.90;;;;;;4992470;28;20230;-73
2023/07/01 09:09:29;;;;;;;3.75;1.60;;;14.10;99.90;;;;;;4991181;28;20201;-73
2023/07/01 09:12:00;;;;;;;2.90;1.58;;;14.00;99.90;;;;;;4994485;28;20639;-73
2023/07/01 09:14:48;;;;;;;2.72;1.60;;;14.00;99.90;;;;;;4993855;28;20208;-72
2023/07/01 09:17:30;;;;;;;3.83;1.30;;;13.90;99.90;;;;;;4993003;28;20663;-73
2023/07/01 09:20:07;;;;;;;2.30;1.48;;;13.90;99.90;;;;;;4992074;28;20218;-73
2023/07/01 09:22:40;;;;;;;1.88;1.38;;;13.80;99.90;;;;;;4988740;28;20665;-73
2023/07/01 09:25:11;;;;;;;1.60;1.30;;;13.80;99.90;;;;;;4993961;28;20274;-73
2023/07/01 09:27:48;;;;;;;1.63;1.33;;;13.70;99.90;;;;;;4992655;28;20222;-73
2023/07/01 09:30:30;;;;;;;2.00;1.42;;;13.70;99.90;;;;;;4989020;28;20207;-73
2023/07/01 09:33:16;;;;;;;3.95;1.50;;;13.60;99.90;;;;;;4985154;28;20203;-72
2023/07/01 09:35:54;;;;;;;3.55;1.65;;;13.50;99.90;;;;;;4990242;28;20230;-72
2023/07/01 09:38:26;;;;;;;1.85;1.58;;;13.50;99.90;;;;;;4992034;28;20195;-73
2023/07/01 09:40:57;;;;;;;1.83;1.42;;;13.40;99.90;;;;;;4991629;28;20269;-72
2023/07/01 09:43:35;;;;;;;2.95;1.73;;;13.40;99.90;;;;;;4991368;28;20541;-73
2023/07/01 09:46:07;;;;;;;3.15;1.90;;;13.30;99.90;;;;;;4992378;28;20199;-73
2023/07/01 09:48:38;;;;;;;3.53;1.90;;;13.30;99.90;;;;;;4979498;28;20701;-73
2023/07/01 09:51:11;;;;;;;3.10;2.20;;;13.30;99.90;;;;;;4991780;28;20199;-73
2023/07/01 09:53:42;;;;;;;2.78;2.15;;;13.20;99.90;;;;;;4993302;28;20195;-73
2023/07/01 09:56:15;;;;;;;3.40;2.10;;;13.20;99.90;;;;;;4995459;28;20204;-73
2023/07/01 09:58:47;;;;;;;4.00;2.30;;;13.20;99.90;;;;;;4994356;28;20235;-73
2023/07/01 10:01:20;;;;;;;2.15;1.95;;;13.20;99.90;;;;;;4995400;28;20234;-73
2023/07/01 10:03:53;;;;;;;3.42;1.90;;;13.10;99.90;;;;;;4995342;28;20196;-73
2023/07/01 10:06:29;;;;;;;2.15;1.73;;;13.10;99.90;;;;;;4995187;28;20211;-73
2023/07/01 10:09:00;;;;;;;2.90;1.90;;;13.10;99.90;;;;;;4995826;28;20702;-73
2023/07/01 10:11:31;;;;;;;2.80;1.90;;;13.00;99.90;;;;;;4995030;28;20246;-73
2023/07/01 10:14:07;;;;;;;2.97;1.70;;;13.00;99.90;;;;;;4995163;28;20196;-73
2023/07/01 10:16:49;;;;;;;3.17;1.65;;;12.90;99.90;;;;;;4994860;28;20663;-74
2023/07/01 10:19:33;;;;;;;3.55;1.80;;;12.90;99.90;;;;;;4995398;28;20192;-73
2023/07/01 10:22:29;;;;;;;2.22;1.70;;;12.90;99.90;;;;;;4995235;28;20200;-73
2023/07/01 10:25:05;;;;;;;2.60;1.70;;;12.80;99.90;;;;;;4994702;28;20258;-73
2023/07/01 10:28:09;;;;;;;2.05;1.42;;;12.80;99.90;;;;;;4994680;28;20314;-73
2023/07/01 10:31:14;;;;;;;1.67;1.42;;;12.70;99.90;;;;;;4954099;29;20231;-73
2023/07/01 10:34:01;;;;;;;2.17;1.50;;;12.70;99.90;;;;;;4995055;28;20192;-73
2023/07/01 10:36:36;;;;;;;1.85;1.50;;;12.70;99.90;;;;;;4994796;28;20195;-73
2023/07/01 10:39:35;;;;;;;1.98;1.50;;;12.70;99.90;;;;;;4994723;28;20274;-73
2023/07/01 10:42:12;;;;;;;2.42;1.45;;;12.70;99.90;;;;;;4994569;28;20210;-73
2023/07/01 10:44:43;;;;;;;2.55;1.60;;;12.60;99.90;;;;;;4994495;28;20203;-73
2023/07/01 10:47:20;;;;;;;1.98;1.50;;;12.60;99.90;;;;;;4994178;28;20188;-73
2023/07/01 10:50:11;;;;;;;2.50;1.40;;;12.60;99.90;;;;;;4994455;28;20191;-73
2023/07/01 10:53:06;;;;;;;2.88;1.55;;;12.50;99.90;;;;;;4994440;28;20553;-73
2023/07/01 10:55:47;;;;;;;1.58;1.30;;;12.50;99.90;;;;;;4994337;28;20195;-73
2023/07/01 10:58:21;;;;;;;1.20;1.10;;;12.50;99.90;;;;;;4994040;28;20778;-73
2023/07/01 11:00:52;;;;;;;1.10;1.00;;;12.50;99.90;;;;;;4993789;28;20266;-73
2023/07/01 11:03:59;;;;;;;1.35;1.15;;;12.50;99.90;;;;;;4994317;28;20192;-74
2023/07/01 11:06:31;;;;;;;1.10;1.00;;;12.50;99.90;;;;;;4994180;28;20685;-73
2023/07/01 11:09:02;;;;;;;1.05;0.95;;;12.50;99.90;;;;;;4994158;28;20250;-74
2023/07/01 11:11:36;;;;;;;1.40;1.02;;;12.50;99.90;;;;;;4994334;28;20573;-74
2023/07/01 11:14:09;;;;;;;1.63;0.75;;;12.40;99.90;;;;;;4993461;28;20192;-73
2023/07/01 11:16:41;;;;;;;1.92;1.17;;;12.50;99.90;;;;;;4974694;28;20196;-73
2023/07/01 11:19:17;;;;;;;1.77;1.10;;;12.50;99.90;;;;;;4986546;28;20218;-74
2023/07/01 11:21:48;;;;;;;1.38;1.00;;;12.50;99.90;;;;;;4994417;28;20203;-73
2023/07/01 11:24:25;;;;;;;0.90;0.80;;;12.50;99.90;;;;;;4994118;28;20274;-74
2023/07/01 11:27:04;;;;;;;1.10;1.00;;;12.50;99.90;;;;;;4994122;28;20231;-73
2023/07/01 11:29:36;;;;;;;1.10;1.00;;;12.50;99.90;;;;;;4993747;28;20305;-73
2023/07/01 11:32:09;;;;;;;1.80;1.10;;;12.60;99.90;;;;;;4993903;28;20209;-73
2023/07/01 11:34:40;;;;;;;1.38;1.00;;;12.60;99.90;;;;;;4992176;28;20607;-73
2023/07/01 11:37:11;;;;;;;1.52;0.80;;;12.60;99.90;;;;;;4976786;28;20564;-73
2023/07/01 11:39:52;;;;;;;0.75;0.70;;;12.70;99.90;;;;;;4990951;28;20196;-73
2023/07/01 11:42:28;;;;;;;0.98;0.75;;;12.70;99.90;;;;;;4985932;28;20195;-73
2023/07/01 11:45:06;;;;;;;1.00;0.77;;;12.70;99.90;;;;;;4990467;28;20290;-73
2023/07/01 11:47:37;;;;;;;1.13;0.70;;;12.70;99.90;;;;;;4991152;28;20199;-72
2023/07/01 11:50:09;;;;;;;0.98;0.70;;;12.70;99.90;;;;;;4990764;28;20587;-73
2023/07/01 11:52:40;;;;;;;1.27;0.68;;;12.70;99.90;;;;;;4978014;28;20200;-73
2023/07/01 11:55:11;;;;;;;1.08;0.80;;;12.70;99.90;;;;;;4994039;28;20191;-73
2023/07/01 11:57:44;;;;;;;0.77;0.75;;;12.70;99.90;;;;;;4992025;28;20215;-73
2023/07/01 12:00:29;;;;;;;0.60;0.60;;;12.70;99.90;;;;;;4991186;28;20294;-73
2023/07/01 12:03:01;;;;;;;1.30;0.57;;;12.80;99.90;;;;;;4991497;28;20200;-73
2023/07/01 12:05:34;;;;;;;0.55;0.50;;;12.80;99.90;;;;;;4990340;28;20290;-72
2023/07/01 12:08:05;;;;;;;0.55;0.47;;;12.80;99.90;;;;;;4992252;28;20585;-72
2023/07/01 12:10:39;;;;;;;1.05;0.63;;;12.80;99.90;;;;;;4991415;28;20203;-73
2023/07/01 12:13:29;;;;;;;1.58;0.50;;;12.90;99.90;;;;;;4991592;28;20202;-73
2023/07/01 12:16:02;;;;;;;0.57;0.57;;;12.80;99.90;;;;;;4980708;28;20195;-73
2023/07/01 12:18:33;;;;;;;0.77;0.68;;;12.90;99.90;;;;;;4990179;28;20211;-73
2023/07/01 12:21:04;;;;;;;0.57;0.50;;;12.90;99.90;;;;;;4991975;28;20207;-73
2023/07/01 12:23:47;;;;;;;0.82;0.60;;;12.90;99.90;;;;;;4990568;28;20199;-73
2023/07/01 12:26:18;;;;;;;1.65;0.60;;;12.90;99.90;;;;;;4991962;28;20209;-73
2023/07/01 12:28:51;;;;;;;0.98;0.60;;;12.90;99.90;;;;;;4994495;28;21379;-72
2023/07/01 12:31:23;;;;;;;0.60;0.60;;;12.90;99.90;;;;;;4996142;28;20207;-72
2023/07/01 12:33:54;;;;;;;0.55;0.55;;;12.90;99.90;;;;;;4994962;28;20235;-73
2023/07/01 12:36:25;;;;;;;1.23;0.70;;;12.90;99.90;;;;;;4997047;28;20198;-72
2023/07/01 12:39:00;;;;;;;0.60;0.52;;;12.90;99.90;;;;;;4993356;28;20705;-72
2023/07/01 12:41:32;;;;;;;1.55;0.80;;;12.90;99.90;;;;;;4991694;28;20203;-73
2023/07/01 12:44:06;;;;;;;0.63;0.60;;;12.90;99.90;;;;;;4994068;28;20204;-73
2023/07/01 12:46:38;;;;;;;1.20;0.70;;;12.90;99.90;;;;;;4995349;28;20253;-73
2023/07/01 12:49:11;;;;;;;0.77;0.73;;;12.90;99.90;;;;;;4993522;28;20223;-72
2023/07/01 12:51:43;;;;;;;0.90;0.70;;;12.90;99.90;;;;;;4995423;28;20581;-73
2023/07/01 12:54:15;;;;;;;0.63;0.63;;;12.90;99.90;;;;;;4994903;28;20262;-73
2023/07/01 12:56:46;;;;;;;0.60;0.50;;;12.90;99.90;;;;;;4995071;28;20214;-73
2023/07/01 12:59:19;;;;;;;0.57;0.57;;;12.90;99.90;;;;;;4994513;28;20227;-72
2023/07/01 13:01:50;;;;;;;1.48;0.63;;;12.90;99.90;;;;;;4995082;28;20211;-72
2023/07/01 13:04:22;;;;;;;0.47;0.47;;;12.90;99.90;;;;;;4992226;28;20210;-72
2023/07/01 13:06:53;;;;;;;0.85;0.50;;;12.90;99.90;;;;;;4996382;28;20283;-72
2023/07/01 13:09:36;;;;;;;0.55;0.50;;;12.90;99.90;;;;;;4994866;28;20690;-73
2023/07/01 13:12:08;;;;;;;0.55;0.55;;;12.80;99.90;;;;;;4995558;28;20287;-72
2023/07/01 13:14:41;;;;;;;0.60;0.60;;;12.80;99.90;;;;;;4991469;28;20215;-72
2023/07/01 13:17:12;;;;;;;0.60;0.60;;;12.80;99.90;;;;;;4991194;28;20200;-73
2023/07/01 13:19:43;;;;;;;0.80;0.60;;;12.80;99.90;;;;;;4993985;28;20199;-72